Terminal Aerodrome Forecast
Issued by NWS

Home | Current Version | Previous Version | Text Only | Print | Product List | Glossary On
Versions: 1 2 3 4 5 6 7 8 9 10 11 12 13 14 15 16 17 18 19 20
000
FTUS43 KICT 182338
TAFCNU
TAF
KCNU 182338Z 1900/1924 16006KT P6SM BKN060
     FM190300 16005KT 5SM BR OVC015
     FM190600 16005KT 2SM BR OVC008
     FM190800 16005KT 1/2SM FG OVC002
     FM191700 15005KT 3SM BR OVC008
     FM191900 14005KT P6SM BKN025=

USA.gov is the U.S. government's official web portal to all federal, state and local government web resources and services.